Terminal Aerodrome Forecast
Issued by NWS Goodland, KS

Home | Current Version | Previous Version | Text Only | Print | Product List | Glossary On
Versions: 1 2 3 4 5 6 7 8 9 10 11 12 13 14
000
FTUS43 KGLD 301120
TAFGLD
TAF
KGLD 301120Z 3012/0112 24006KT P6SM FEW090
     FM301500 VRB05KT P6SM SKC
     FM010500 VRB05KT P6SM BKN150=

USA.gov is the U.S. government's official web portal to all federal, state and local government web resources and services.